createdAt,value
2022-11-19T00:01:47.994Z,8.98
2022-11-19T00:05:29.748Z,8.30
2022-11-19T00:09:14.326Z,8.75
2022-11-19T00:12:56.088Z,8.45
2022-11-19T00:16:40.562Z,8.00
2022-11-19T00:20:22.352Z,7.55
2022-11-19T00:24:04.251Z,8.75
2022-11-19T00:27:46.245Z,8.93
2022-11-19T00:31:28.350Z,8.60
2022-11-19T00:35:10.166Z,8.25
2022-11-19T00:38:51.891Z,7.05
2022-11-19T00:42:34.416Z,6.75
2022-11-19T00:46:25.554Z,6.95
2022-11-19T00:50:07.949Z,5.72
2022-11-19T00:53:49.745Z,5.93
2022-11-19T00:57:31.473Z,7.25
2022-11-19T01:01:14.552Z,7.25
2022-11-19T01:04:56.385Z,9.43
2022-11-19T01:08:38.233Z,6.63
2022-11-19T01:12:19.998Z,6.50
2022-11-19T01:16:11.139Z,4.93
2022-11-19T01:19:53.136Z,3.45
2022-11-19T01:23:35.535Z,4.00
2022-11-19T01:27:17.596Z,3.50
2022-11-19T01:31:00.295Z,5.63
2022-11-19T01:34:42.061Z,4.35
2022-11-19T01:38:23.815Z,4.38
2022-11-19T01:42:05.767Z,4.35
2022-11-19T01:45:49.918Z,5.13
2022-11-19T01:49:31.652Z,5.03
2022-11-19T01:53:14.618Z,5.75
2022-11-19T01:57:01.669Z,5.22
2022-11-19T02:00:43.444Z,6.18
2022-11-19T02:04:26.779Z,5.53
2022-11-19T02:08:10.538Z,6.57
2022-11-19T02:12:11.164Z,6.80
2022-11-19T02:16:13.201Z,7.90
2022-11-19T02:20:22.973Z,7.10
2022-11-19T02:24:13.902Z,8.65
2022-11-19T02:28:27.862Z,7.25
2022-11-19T02:32:18.897Z,6.03
2022-11-19T02:36:14.213Z,6.50
2022-11-19T02:40:22.774Z,6.70
2022-11-19T02:44:34.947Z,6.32
2022-11-19T02:48:20.003Z,6.40
2022-11-19T02:52:03.325Z,6.38
2022-11-19T02:56:07.710Z,6.05
2022-11-19T03:00:17.162Z,6.32
2022-11-19T03:04:17.690Z,5.82
2022-11-19T03:07:59.681Z,6.13
2022-11-19T03:11:48.241Z,5.47
2022-11-19T03:16:04.125Z,5.18
2022-11-19T03:20:18.561Z,5.78
2022-11-19T03:24:11.057Z,5.30
2022-11-19T03:27:59.130Z,6.78
2022-11-19T03:31:47.892Z,6.55
2022-11-19T03:35:37.478Z,6.32
2022-11-19T03:39:21.518Z,6.50
2022-11-19T03:43:08.229Z,7.65
2022-11-19T03:46:55.863Z,9.23
2022-11-19T03:50:49.542Z,9.57
2022-11-19T03:54:31.333Z,10.52
2022-11-19T03:58:13.361Z,9.52
2022-11-19T04:01:58.608Z,10.05
2022-11-19T04:05:40.351Z,10.77
2022-11-19T04:09:22.377Z,12.07
2022-11-19T04:13:04.271Z,12.18
2022-11-19T04:16:46.751Z,12.30
2022-11-19T04:20:28.545Z,11.50
2022-11-19T04:24:10.784Z,15.13
2022-11-19T04:27:52.561Z,13.52
2022-11-19T04:31:34.354Z,14.15
2022-11-19T04:35:18.204Z,15.45
2022-11-19T04:39:00.057Z,15.63
2022-11-19T04:42:41.890Z,14.35
2022-11-19T04:46:23.622Z,13.80
2022-11-19T04:50:05.725Z,14.07
2022-11-19T04:53:47.461Z,15.13
2022-11-19T04:57:29.202Z,13.35
2022-11-19T05:01:11.087Z,13.82
2022-11-19T05:04:52.890Z,13.73
2022-11-19T05:08:34.642Z,13.82
2022-11-19T05:12:16.445Z,13.10
2022-11-19T05:15:58.209Z,13.27
2022-11-19T05:19:39.961Z,13.25
2022-11-19T05:23:21.724Z,12.27
2022-11-19T05:27:03.662Z,12.38
2022-11-19T05:30:45.390Z,13.00
2022-11-19T05:34:27.122Z,12.48
2022-11-19T05:38:08.827Z,12.80
2022-11-19T05:41:50.729Z,12.55
2022-11-19T05:45:32.800Z,14.43
2022-11-19T05:49:14.598Z,14.57
2022-11-19T05:52:58.150Z,14.10
2022-11-19T05:56:39.882Z,14.52
2022-11-19T06:00:21.844Z,13.55
2022-11-19T06:04:03.620Z,14.38
2022-11-19T06:07:45.371Z,13.70
2022-11-19T06:11:45.497Z,11.50
2022-11-19T06:15:27.243Z,13.93
2022-11-19T06:19:09.687Z,14.55
2022-11-19T06:22:52.097Z,14.98
2022-11-19T06:26:33.872Z,15.43
2022-11-19T06:30:16.266Z,14.77
2022-11-19T06:33:58.293Z,15.35
2022-11-19T06:37:40.015Z,15.43
2022-11-19T06:41:21.930Z,15.05
2022-11-19T06:45:14.063Z,15.18
2022-11-19T06:48:55.801Z,16.45
2022-11-19T06:52:37.896Z,15.93
2022-11-19T06:56:19.875Z,15.98
2022-11-19T07:00:01.669Z,15.23
2022-11-19T07:03:43.413Z,15.68
2022-11-19T07:07:25.213Z,14.50
2022-11-19T07:11:33.115Z,15.23
2022-11-19T07:15:14.863Z,15.43
2022-11-19T07:18:58.670Z,14.05
2022-11-19T07:22:41.809Z,16.27
2022-11-19T07:26:23.916Z,15.77
2022-11-19T07:30:07.432Z,14.48
2022-11-19T07:33:49.126Z,14.45
2022-11-19T07:37:30.861Z,15.05
2022-11-19T07:41:31.585Z,14.02
2022-11-19T07:45:13.346Z,14.90
2022-11-19T07:48:57.698Z,14.23
2022-11-19T07:52:39.826Z,12.80
2022-11-19T07:56:21.640Z,13.70
2022-11-19T08:00:05.967Z,12.77
2022-11-19T08:03:54.899Z,13.68
2022-11-19T08:07:38.584Z,12.95
2022-11-19T08:11:20.442Z,12.30
2022-11-19T08:15:02.666Z,11.77
2022-11-19T08:18:45.095Z,11.70
2022-11-19T08:22:26.822Z,11.65
2022-11-19T08:26:08.869Z,10.40
2022-11-19T08:29:50.625Z,11.00
2022-11-19T08:33:32.339Z,11.02
2022-11-19T08:37:14.134Z,11.75
2022-11-19T08:41:16.094Z,11.02
2022-11-19T08:44:58.792Z,10.38
2022-11-19T08:48:40.533Z,10.32
2022-11-19T08:52:22.288Z,11.65
2022-11-19T08:56:05.306Z,13.38
2022-11-19T08:59:47.049Z,11.93
2022-11-19T09:03:28.791Z,10.40
2022-11-19T09:07:10.626Z,12.23
2022-11-19T09:10:52.437Z,11.70
2022-11-19T09:14:34.151Z,10.80
2022-11-19T09:18:16.061Z,11.68
2022-11-19T09:21:57.802Z,10.18
2022-11-19T09:25:39.572Z,10.93
2022-11-19T09:29:21.377Z,10.18
2022-11-19T09:33:03.069Z,9.80
2022-11-19T09:36:44.785Z,9.80
2022-11-19T09:40:26.507Z,8.48
2022-11-19T09:44:08.205Z,9.30
2022-11-19T09:48:22.085Z,8.23
2022-11-19T09:52:12.126Z,12.07
2022-11-19T09:55:54.248Z,8.80
2022-11-19T09:59:40.486Z,7.80
2022-11-19T10:03:27.375Z,8.60
2022-11-19T10:07:28.598Z,8.25
2022-11-19T10:11:35.406Z,6.90
2022-11-19T10:15:26.009Z,7.38
2022-11-19T10:19:39.882Z,8.07
2022-11-19T10:23:40.249Z,6.57
2022-11-19T10:27:39.654Z,7.03
2022-11-19T10:31:29.163Z,7.38
2022-11-19T10:35:22.044Z,6.90
2022-11-19T10:39:15.028Z,7.35
2022-11-19T10:43:26.553Z,7.47
2022-11-19T10:47:22.401Z,6.80
2022-11-19T10:51:30.854Z,6.85
2022-11-19T10:55:17.633Z,6.82
2022-11-19T10:59:18.523Z,7.28
2022-11-19T11:03:03.132Z,6.65
2022-11-19T11:06:56.583Z,7.63
2022-11-19T11:10:45.483Z,8.18
2022-11-19T11:14:45.759Z,7.82
2022-11-19T11:18:31.355Z,8.00
2022-11-19T11:22:13.186Z,7.57
2022-11-19T11:26:01.033Z,5.60
2022-11-19T11:29:42.817Z,7.15
2022-11-19T11:33:24.492Z,4.90
2022-11-19T11:37:08.840Z,5.63
2022-11-19T11:41:56.418Z,4.40
2022-11-19T11:45:33.965Z,4.38
2022-11-19T11:49:37.266Z,4.47
2022-11-19T11:53:32.439Z,3.40
2022-11-19T11:57:20.353Z,2.90
2022-11-19T12:01:16.163Z,3.10
2022-11-19T12:05:07.091Z,3.28
2022-11-19T12:09:23.533Z,2.53
2022-11-19T12:13:42.294Z,2.42
2022-11-19T12:17:49.939Z,3.13
2022-11-19T12:21:47.061Z,2.88
2022-11-19T12:25:40.758Z,2.92
2022-11-19T12:29:47.209Z,2.50
2022-11-19T12:33:50.383Z,2.60
2022-11-19T12:38:11.786Z,4.00
2022-11-19T12:42:22.721Z,4.05
2022-11-19T12:46:09.994Z,2.92
2022-11-19T12:50:11.187Z,2.97
2022-11-19T12:54:01.857Z,3.28
2022-11-19T12:58:23.440Z,3.80
2022-11-19T13:02:29.853Z,2.75
2022-11-19T13:06:26.154Z,3.88
2022-11-19T13:10:39.902Z,3.58
2022-11-19T13:14:49.513Z,3.40
2022-11-19T13:18:38.069Z,2.75
2022-11-19T13:22:42.597Z,2.47
2022-11-19T13:26:29.297Z,2.75
2022-11-19T13:30:22.117Z,2.65
2022-11-19T13:34:25.525Z,2.92
2022-11-19T13:38:35.303Z,2.75
2022-11-19T13:42:37.225Z,3.45
2022-11-19T13:46:43.333Z,3.13
2022-11-19T13:50:42.800Z,5.10
2022-11-19T13:54:39.832Z,4.95
2022-11-19T14:02:08.929Z,3.60
2022-11-19T14:06:14.964Z,3.17
2022-11-19T14:10:19.232Z,3.60
2022-11-19T14:14:37.769Z,3.53
2022-11-19T14:18:38.172Z,3.65
2022-11-19T14:23:15.171Z,4.15
2022-11-19T14:27:01.235Z,3.75
2022-11-19T14:31:04.115Z,4.47
2022-11-19T14:34:46.153Z,4.28
2022-11-19T14:38:37.634Z,5.10
2022-11-19T14:42:22.252Z,5.13
2022-11-19T14:46:09.115Z,6.10
2022-11-19T14:49:52.753Z,6.70
2022-11-19T14:53:49.010Z,6.05
2022-11-19T14:57:33.582Z,6.00
2022-11-19T15:01:21.480Z,5.30
2022-11-19T15:05:19.859Z,5.75
2022-11-19T15:09:02.211Z,5.30
2022-11-19T15:12:43.873Z,5.30
2022-11-19T15:16:27.314Z,6.45
2022-11-19T15:20:22.857Z,5.63
2022-11-19T15:24:21.038Z,6.72
2022-11-19T15:28:15.524Z,6.68
2022-11-19T15:32:12.041Z,6.32
2022-11-19T15:36:31.967Z,6.90
2022-11-19T15:40:19.465Z,6.32
2022-11-19T15:44:06.921Z,7.18
2022-11-19T15:47:53.564Z,7.18
2022-11-19T15:51:58.791Z,6.75
2022-11-19T15:55:52.029Z,6.68
2022-11-19T15:59:38.207Z,6.88
2022-11-19T16:03:20.990Z,7.82
2022-11-19T16:07:05.312Z,7.75
2022-11-19T16:10:47.434Z,7.70
2022-11-19T16:14:48.744Z,6.70
2022-11-19T16:18:30.591Z,7.43
2022-11-19T16:22:13.209Z,9.93
2022-11-19T16:25:55.071Z,11.13
2022-11-19T16:29:40.867Z,12.43
2022-11-19T16:33:27.696Z,11.02
2022-11-19T16:37:14.058Z,11.10
2022-11-19T16:41:15.630Z,10.27
2022-11-19T16:45:14.481Z,11.13
2022-11-19T16:48:58.024Z,8.32
2022-11-19T16:52:42.775Z,7.93
2022-11-19T16:56:25.518Z,7.95
2022-11-19T17:00:17.193Z,8.52
2022-11-19T17:04:07.451Z,8.27
2022-11-19T17:07:51.336Z,9.10
2022-11-19T17:12:10.230Z,9.35
2022-11-19T17:15:52.229Z,9.05
2022-11-19T17:19:35.496Z,10.32
2022-11-19T17:23:22.956Z,10.30
2022-11-19T17:27:04.763Z,10.43
2022-11-19T17:30:49.460Z,10.02
2022-11-19T17:34:33.800Z,11.82
2022-11-19T17:38:29.924Z,26.70
2022-11-19T17:42:30.427Z,11.90
2022-11-19T17:46:12.202Z,15.48
2022-11-19T17:49:54.410Z,14.32
2022-11-19T17:53:36.123Z,15.35
2022-11-19T17:57:17.875Z,13.35
2022-11-19T18:00:59.637Z,14.82
2022-11-19T18:04:45.783Z,12.70
2022-11-19T18:08:27.482Z,11.27
2022-11-19T18:12:15.980Z,11.95
2022-11-19T18:15:58.039Z,12.23
2022-11-19T18:19:40.196Z,12.90
2022-11-19T18:23:21.906Z,12.80
2022-11-19T18:27:03.672Z,12.77
2022-11-19T18:30:45.625Z,13.05
2022-11-19T18:34:27.361Z,11.02
2022-11-19T18:38:09.062Z,11.48
2022-11-19T18:41:51.322Z,11.93
2022-11-19T18:45:33.054Z,15.18
2022-11-19T18:49:14.752Z,17.08
2022-11-19T18:52:56.488Z,16.90
2022-11-19T18:56:38.423Z,19.65
2022-11-19T19:00:20.237Z,20.40
2022-11-19T19:04:02.230Z,18.50
2022-11-19T19:07:44.071Z,16.83
2022-11-19T19:11:44.449Z,14.80
2022-11-19T19:15:26.267Z,13.52
2022-11-19T19:19:11.321Z,12.23
2022-11-19T19:22:53.045Z,12.32
2022-11-19T19:26:34.772Z,11.20
2022-11-19T19:30:16.538Z,11.45
2022-11-19T19:33:58.576Z,10.70
2022-11-19T19:37:41.844Z,11.98
2022-11-19T19:41:28.381Z,11.18
2022-11-19T19:45:10.572Z,12.53
2022-11-19T19:48:54.134Z,12.23
2022-11-19T19:52:35.838Z,13.32
2022-11-19T19:56:23.262Z,12.73
2022-11-19T20:00:05.578Z,12.90
2022-11-19T20:03:51.753Z,12.98
2022-11-19T20:07:36.130Z,14.00
2022-11-19T20:11:20.150Z,14.02
2022-11-19T20:15:01.878Z,14.95
2022-11-19T20:18:43.931Z,14.10
2022-11-19T20:22:25.687Z,14.48
2022-11-19T20:26:29.485Z,14.60
2022-11-19T20:30:11.867Z,14.07
2022-11-19T20:33:58.931Z,14.85
2022-11-19T20:37:41.666Z,15.10
2022-11-19T20:41:42.338Z,15.43
2022-11-19T20:45:24.049Z,15.98
2022-11-19T20:49:06.501Z,15.73
2022-11-19T20:52:48.292Z,16.30
2022-11-19T20:56:30.405Z,16.48
2022-11-19T21:00:12.875Z,16.27
2022-11-19T21:03:54.602Z,14.40
2022-11-19T21:07:36.418Z,14.30
2022-11-19T21:11:18.196Z,14.80
2022-11-19T21:15:00.108Z,13.85
2022-11-19T21:18:42.793Z,14.48
2022-11-19T21:22:24.550Z,15.32
2022-11-19T21:26:11.501Z,13.75
2022-11-19T21:29:53.205Z,15.20
2022-11-19T21:33:35.037Z,14.70
2022-11-19T21:37:16.769Z,14.93
2022-11-19T21:40:58.793Z,15.35
2022-11-19T21:44:40.618Z,15.00
2022-11-19T21:48:23.010Z,16.15
2022-11-19T21:52:04.781Z,15.23
2022-11-19T21:55:47.132Z,14.38
2022-11-19T21:59:28.874Z,15.68
2022-11-19T22:03:10.754Z,13.80
2022-11-19T22:06:52.539Z,14.40
2022-11-19T22:10:34.262Z,13.27
2022-11-19T22:14:16.012Z,14.05
2022-11-19T22:17:57.838Z,13.05
2022-11-19T22:21:40.451Z,11.70
2022-11-19T22:25:22.176Z,12.32
2022-11-19T22:29:03.966Z,11.93
2022-11-19T22:32:45.680Z,12.00
2022-11-19T22:36:30.852Z,11.90
2022-11-19T22:40:13.056Z,11.60
2022-11-19T22:43:54.938Z,11.50
2022-11-19T22:47:36.649Z,11.80
2022-11-19T22:51:23.458Z,11.43
2022-11-19T22:55:05.634Z,12.50
2022-11-19T22:58:48.169Z,10.80
2022-11-19T23:02:29.925Z,9.15
2022-11-19T23:06:11.649Z,7.80
2022-11-19T23:09:53.374Z,9.30
2022-11-19T23:13:39.014Z,8.25
2022-11-19T23:17:20.897Z,7.50
2022-11-19T23:21:09.654Z,7.22
2022-11-19T23:24:51.406Z,7.35
2022-11-19T23:28:35.203Z,6.90
2022-11-19T23:32:16.901Z,5.70
2022-11-19T23:36:07.842Z,6.22
2022-11-19T23:39:49.615Z,6.20
2022-11-19T23:43:32.342Z,7.50
2022-11-19T23:47:14.182Z,7.80
2022-11-19T23:50:55.875Z,7.43
2022-11-19T23:54:37.607Z,7.28
2022-11-19T23:58:19.418Z,7.53
